sensor_id;sensor_type;location;lat;lon;timestamp;P1;durP1;ratioP1;P2;durP2;ratioP2
28613;SDS011;15806;53.548;9.964;2022-09-09T00:05:57;88.43;;;45.25;;
28613;SDS011;15806;53.548;9.964;2022-09-09T00:07:47;99.70;;;50.83;;
28613;SDS011;15806;53.548;9.964;2022-09-09T00:09:31;96.65;;;49.53;;
28613;SDS011;15806;53.548;9.964;2022-09-09T00:11:50;104.72;;;48.30;;
28613;SDS011;15806;53.548;9.964;2022-09-09T00:13:45;104.03;;;51.30;;
28613;SDS011;15806;53.548;9.964;2022-09-09T00:15:31;103.88;;;51.65;;
28613;SDS011;15806;53.548;9.964;2022-09-09T00:19:56;119.25;;;52.22;;
28613;SDS011;15806;53.548;9.964;2022-09-09T00:21:43;129.40;;;53.97;;
28613;SDS011;15806;53.548;9.964;2022-09-09T00:23:38;129.88;;;54.58;;
28613;SDS011;15806;53.548;9.964;2022-09-09T00:25:23;130.95;;;54.10;;
28613;SDS011;15806;53.548;9.964;2022-09-09T00:27:16;140.20;;;55.80;;
28613;SDS011;15806;53.548;9.964;2022-09-09T00:29:37;135.25;;;55.88;;
28613;SDS011;15806;53.548;9.964;2022-09-09T00:31:29;137.50;;;55.00;;
28613;SDS011;15806;53.548;9.964;2022-09-09T00:33:11;142.70;;;56.80;;
28613;SDS011;15806;53.548;9.964;2022-09-09T00:34:55;150.98;;;57.60;;
28613;SDS011;15806;53.548;9.964;2022-09-09T00:36:57;141.50;;;56.72;;
28613;SDS011;15806;53.548;9.964;2022-09-09T00:38:38;157.53;;;58.80;;
28613;SDS011;15806;53.548;9.964;2022-09-09T00:40:34;155.82;;;58.38;;
28613;SDS011;15806;53.548;9.964;2022-09-09T00:42:22;169.10;;;59.05;;
28613;SDS011;15806;53.548;9.964;2022-09-09T00:44:19;169.35;;;57.50;;
28613;SDS011;15806;53.548;9.964;2022-09-09T00:48:50;138.35;;;54.92;;
28613;SDS011;15806;53.548;9.964;2022-09-09T00:50:43;150.50;;;55.45;;
28613;SDS011;15806;53.548;9.964;2022-09-09T00:59:12;130.20;;;50.60;;
28613;SDS011;15806;53.548;9.964;2022-09-09T01:01:10;130.43;;;50.60;;
28613;SDS011;15806;53.548;9.964;2022-09-09T01:05:05;117.78;;;49.15;;
28613;SDS011;15806;53.548;9.964;2022-09-09T01:06:53;116.97;;;49.63;;
28613;SDS011;15806;53.548;9.964;2022-09-09T01:10:53;114.65;;;48.60;;
28613;SDS011;15806;53.548;9.964;2022-09-09T01:12:42;132.50;;;51.20;;
28613;SDS011;15806;53.548;9.964;2022-09-09T01:14:32;132.57;;;49.40;;
28613;SDS011;15806;53.548;9.964;2022-09-09T01:16:15;141.30;;;50.85;;
28613;SDS011;15806;53.548;9.964;2022-09-09T01:21:33;148.83;;;50.20;;
28613;SDS011;15806;53.548;9.964;2022-09-09T01:25:27;143.50;;;49.05;;
28613;SDS011;15806;53.548;9.964;2022-09-09T01:27:28;139.25;;;47.28;;
28613;SDS011;15806;53.548;9.964;2022-09-09T01:29:10;153.27;;;48.77;;
28613;SDS011;15806;53.548;9.964;2022-09-09T01:30:53;155.15;;;50.15;;
28613;SDS011;15806;53.548;9.964;2022-09-09T01:32:39;146.98;;;47.85;;
28613;SDS011;15806;53.548;9.964;2022-09-09T01:34:25;170.15;;;50.40;;
28613;SDS011;15806;53.548;9.964;2022-09-09T01:36:12;143.98;;;48.47;;
28613;SDS011;15806;53.548;9.964;2022-09-09T01:38:00;121.00;;;45.70;;
28613;SDS011;15806;53.548;9.964;2022-09-09T01:39:41;219.73;;;52.83;;
28613;SDS011;15806;53.548;9.964;2022-09-09T01:41:24;326.60;;;55.38;;
28613;SDS011;15806;53.548;9.964;2022-09-09T01:43:05;181.57;;;50.50;;
28613;SDS011;15806;53.548;9.964;2022-09-09T01:44:45;169.27;;;50.38;;
28613;SDS011;15806;53.548;9.964;2022-09-09T01:46:26;151.77;;;49.17;;
28613;SDS011;15806;53.548;9.964;2022-09-09T01:48:09;160.60;;;51.90;;
28613;SDS011;15806;53.548;9.964;2022-09-09T01:49:49;167.87;;;51.00;;
28613;SDS011;15806;53.548;9.964;2022-09-09T01:51:30;161.53;;;50.53;;
28613;SDS011;15806;53.548;9.964;2022-09-09T01:53:11;154.20;;;51.43;;
28613;SDS011;15806;53.548;9.964;2022-09-09T01:58:43;178.55;;;52.17;;
28613;SDS011;15806;53.548;9.964;2022-09-09T02:00:28;178.65;;;54.10;;
28613;SDS011;15806;53.548;9.964;2022-09-09T02:06:16;155.10;;;50.65;;
28613;SDS011;15806;53.548;9.964;2022-09-09T02:08:23;169.45;;;51.45;;
28613;SDS011;15806;53.548;9.964;2022-09-09T02:10:33;159.23;;;51.10;;
28613;SDS011;15806;53.548;9.964;2022-09-09T02:12:20;145.32;;;50.35;;
28613;SDS011;15806;53.548;9.964;2022-09-09T02:14:14;157.70;;;50.03;;
28613;SDS011;15806;53.548;9.964;2022-09-09T02:17:51;142.00;;;48.05;;
28613;SDS011;15806;53.548;9.964;2022-09-09T02:19:35;148.27;;;49.83;;
28613;SDS011;15806;53.548;9.964;2022-09-09T02:21:19;163.30;;;51.75;;
28613;SDS011;15806;53.548;9.964;2022-09-09T02:23:02;136.70;;;48.45;;
28613;SDS011;15806;53.548;9.964;2022-09-09T02:24:45;144.00;;;48.28;;
28613;SDS011;15806;53.548;9.964;2022-09-09T02:26:26;130.13;;;47.95;;
28613;SDS011;15806;53.548;9.964;2022-09-09T02:28:07;119.00;;;45.35;;
28613;SDS011;15806;53.548;9.964;2022-09-09T02:29:50;113.65;;;44.72;;
28613;SDS011;15806;53.548;9.964;2022-09-09T02:31:33;125.28;;;45.10;;
28613;SDS011;15806;53.548;9.964;2022-09-09T02:33:17;130.63;;;47.78;;
28613;SDS011;15806;53.548;9.964;2022-09-09T02:35:08;120.30;;;45.42;;
28613;SDS011;15806;53.548;9.964;2022-09-09T02:36:52;114.68;;;44.75;;
28613;SDS011;15806;53.548;9.964;2022-09-09T02:38:36;117.63;;;45.13;;
28613;SDS011;15806;53.548;9.964;2022-09-09T02:40:22;117.72;;;44.40;;
28613;SDS011;15806;53.548;9.964;2022-09-09T02:42:05;124.20;;;46.90;;
28613;SDS011;15806;53.548;9.964;2022-09-09T02:43:46;107.88;;;43.85;;
28613;SDS011;15806;53.548;9.964;2022-09-09T02:45:44;108.77;;;44.73;;
28613;SDS011;15806;53.548;9.964;2022-09-09T02:52:01;98.35;;;42.33;;
28613;SDS011;15806;53.548;9.964;2022-09-09T02:55:41;112.45;;;45.22;;
28613;SDS011;15806;53.548;9.964;2022-09-09T02:57:28;96.05;;;41.38;;
28613;SDS011;15806;53.548;9.964;2022-09-09T02:59:11;101.85;;;41.95;;
28613;SDS011;15806;53.548;9.964;2022-09-09T03:00:52;102.63;;;42.70;;
28613;SDS011;15806;53.548;9.964;2022-09-09T03:02:32;104.83;;;44.63;;
28613;SDS011;15806;53.548;9.964;2022-09-09T03:04:13;98.07;;;42.43;;
28613;SDS011;15806;53.548;9.964;2022-09-09T03:05:54;95.47;;;41.53;;
28613;SDS011;15806;53.548;9.964;2022-09-09T03:07:34;93.20;;;40.33;;
28613;SDS011;15806;53.548;9.964;2022-09-09T03:09:15;90.23;;;39.67;;
28613;SDS011;15806;53.548;9.964;2022-09-09T03:10:57;90.33;;;40.23;;
28613;SDS011;15806;53.548;9.964;2022-09-09T03:12:38;80.22;;;38.45;;
28613;SDS011;15806;53.548;9.964;2022-09-09T03:14:19;88.27;;;40.80;;
28613;SDS011;15806;53.548;9.964;2022-09-09T03:15:59;82.87;;;38.47;;
28613;SDS011;15806;53.548;9.964;2022-09-09T03:17:40;92.10;;;39.83;;
28613;SDS011;15806;53.548;9.964;2022-09-09T03:19:20;82.90;;;38.80;;
28613;SDS011;15806;53.548;9.964;2022-09-09T03:21:01;83.37;;;38.97;;
28613;SDS011;15806;53.548;9.964;2022-09-09T03:22:41;86.37;;;39.00;;
28613;SDS011;15806;53.548;9.964;2022-09-09T03:24:22;74.03;;;36.90;;
28613;SDS011;15806;53.548;9.964;2022-09-09T03:26:06;77.10;;;37.37;;
28613;SDS011;15806;53.548;9.964;2022-09-09T03:27:46;81.80;;;37.90;;
28613;SDS011;15806;53.548;9.964;2022-09-09T03:29:27;83.30;;;40.27;;
28613;SDS011;15806;53.548;9.964;2022-09-09T03:31:07;87.50;;;38.77;;
28613;SDS011;15806;53.548;9.964;2022-09-09T03:32:48;76.97;;;37.73;;
28613;SDS011;15806;53.548;9.964;2022-09-09T03:34:28;75.70;;;37.23;;
28613;SDS011;15806;53.548;9.964;2022-09-09T03:36:09;81.93;;;37.10;;
28613;SDS011;15806;53.548;9.964;2022-09-09T03:37:50;72.87;;;37.53;;
28613;SDS011;15806;53.548;9.964;2022-09-09T03:39:30;66.87;;;35.17;;
28613;SDS011;15806;53.548;9.964;2022-09-09T03:41:11;75.67;;;35.83;;
28613;SDS011;15806;53.548;9.964;2022-09-09T03:42:51;73.47;;;37.37;;
28613;SDS011;15806;53.548;9.964;2022-09-09T03:44:32;92.20;;;39.30;;
28613;SDS011;15806;53.548;9.964;2022-09-09T03:46:13;77.93;;;37.53;;
28613;SDS011;15806;53.548;9.964;2022-09-09T03:47:53;74.83;;;36.73;;
28613;SDS011;15806;53.548;9.964;2022-09-09T03:49:34;73.73;;;35.23;;
28613;SDS011;15806;53.548;9.964;2022-09-09T03:51:14;66.23;;;33.83;;
28613;SDS011;15806;53.548;9.964;2022-09-09T03:52:55;65.53;;;32.72;;
28613;SDS011;15806;53.548;9.964;2022-09-09T03:54:36;69.47;;;35.13;;
28613;SDS011;15806;53.548;9.964;2022-09-09T03:56:16;67.50;;;33.47;;
28613;SDS011;15806;53.548;9.964;2022-09-09T03:57:57;65.93;;;31.87;;
28613;SDS011;15806;53.548;9.964;2022-09-09T03:59:38;64.60;;;31.93;;
28613;SDS011;15806;53.548;9.964;2022-09-09T04:01:18;62.30;;;31.87;;
28613;SDS011;15806;53.548;9.964;2022-09-09T04:02:59;81.73;;;33.53;;
28613;SDS011;15806;53.548;9.964;2022-09-09T04:04:39;67.70;;;33.50;;
28613;SDS011;15806;53.548;9.964;2022-09-09T04:06:20;101.07;;;35.97;;
28613;SDS011;15806;53.548;9.964;2022-09-09T04:08:00;61.83;;;31.93;;
28613;SDS011;15806;53.548;9.964;2022-09-09T04:09:41;69.20;;;33.30;;
28613;SDS011;15806;53.548;9.964;2022-09-09T04:11:22;72.23;;;34.17;;
28613;SDS011;15806;53.548;9.964;2022-09-09T04:13:03;66.83;;;32.67;;
28613;SDS011;15806;53.548;9.964;2022-09-09T04:14:44;73.90;;;34.60;;
28613;SDS011;15806;53.548;9.964;2022-09-09T04:16:25;72.30;;;34.10;;
28613;SDS011;15806;53.548;9.964;2022-09-09T04:18:05;79.47;;;37.13;;
28613;SDS011;15806;53.548;9.964;2022-09-09T04:19:46;78.63;;;36.63;;
28613;SDS011;15806;53.548;9.964;2022-09-09T04:21:26;77.50;;;35.47;;
28613;SDS011;15806;53.548;9.964;2022-09-09T04:23:07;61.30;;;32.00;;
28613;SDS011;15806;53.548;9.964;2022-09-09T04:24:47;62.57;;;32.37;;
28613;SDS011;15806;53.548;9.964;2022-09-09T04:26:28;67.60;;;33.17;;
28613;SDS011;15806;53.548;9.964;2022-09-09T04:28:08;60.87;;;30.60;;
28613;SDS011;15806;53.548;9.964;2022-09-09T04:29:49;55.30;;;30.03;;
28613;SDS011;15806;53.548;9.964;2022-09-09T04:31:29;54.67;;;30.83;;
28613;SDS011;15806;53.548;9.964;2022-09-09T04:33:10;56.70;;;29.50;;
28613;SDS011;15806;53.548;9.964;2022-09-09T04:34:51;49.80;;;29.30;;
28613;SDS011;15806;53.548;9.964;2022-09-09T04:36:32;49.80;;;29.83;;
28613;SDS011;15806;53.548;9.964;2022-09-09T04:38:12;51.63;;;29.20;;
28613;SDS011;15806;53.548;9.964;2022-09-09T04:39:53;50.37;;;28.93;;
28613;SDS011;15806;53.548;9.964;2022-09-09T04:41:33;50.10;;;27.50;;
28613;SDS011;15806;53.548;9.964;2022-09-09T04:43:14;47.43;;;27.73;;
28613;SDS011;15806;53.548;9.964;2022-09-09T04:44:55;46.10;;;27.92;;
28613;SDS011;15806;53.548;9.964;2022-09-09T04:46:36;44.83;;;25.00;;
28613;SDS011;15806;53.548;9.964;2022-09-09T04:48:16;42.33;;;24.77;;
28613;SDS011;15806;53.548;9.964;2022-09-09T04:49:57;35.93;;;24.17;;
28613;SDS011;15806;53.548;9.964;2022-09-09T04:51:38;40.10;;;23.80;;
28613;SDS011;15806;53.548;9.964;2022-09-09T04:53:18;34.50;;;22.13;;
28613;SDS011;15806;53.548;9.964;2022-09-09T04:54:59;31.07;;;21.53;;
28613;SDS011;15806;53.548;9.964;2022-09-09T04:56:39;33.27;;;20.53;;
28613;SDS011;15806;53.548;9.964;2022-09-09T04:58:20;31.90;;;21.53;;
28613;SDS011;15806;53.548;9.964;2022-09-09T05:00:00;31.40;;;21.80;;
28613;SDS011;15806;53.548;9.964;2022-09-09T05:01:42;29.55;;;21.20;;
28613;SDS011;15806;53.548;9.964;2022-09-09T05:03:22;29.80;;;21.07;;
28613;SDS011;15806;53.548;9.964;2022-09-09T05:05:03;30.47;;;20.43;;
28613;SDS011;15806;53.548;9.964;2022-09-09T05:06:44;33.60;;;20.50;;
28613;SDS011;15806;53.548;9.964;2022-09-09T05:08:24;28.33;;;19.07;;
28613;SDS011;15806;53.548;9.964;2022-09-09T05:10:05;30.73;;;19.50;;
28613;SDS011;15806;53.548;9.964;2022-09-09T05:11:45;26.27;;;19.63;;
28613;SDS011;15806;53.548;9.964;2022-09-09T05:13:26;29.37;;;20.43;;
28613;SDS011;15806;53.548;9.964;2022-09-09T05:15:07;28.25;;;18.60;;
28613;SDS011;15806;53.548;9.964;2022-09-09T05:16:48;25.20;;;17.95;;
28613;SDS011;15806;53.548;9.964;2022-09-09T05:18:29;27.77;;;19.20;;
28613;SDS011;15806;53.548;9.964;2022-09-09T05:20:09;28.93;;;18.27;;
28613;SDS011;15806;53.548;9.964;2022-09-09T05:21:50;25.70;;;18.13;;
28613;SDS011;15806;53.548;9.964;2022-09-09T05:23:30;28.40;;;17.97;;
28613;SDS011;15806;53.548;9.964;2022-09-09T05:25:10;27.73;;;18.63;;
28613;SDS011;15806;53.548;9.964;2022-09-09T05:26:51;26.73;;;18.53;;
28613;SDS011;15806;53.548;9.964;2022-09-09T05:28:33;28.03;;;18.17;;
28613;SDS011;15806;53.548;9.964;2022-09-09T05:30:14;28.13;;;18.33;;
28613;SDS011;15806;53.548;9.964;2022-09-09T05:31:55;26.70;;;18.47;;
28613;SDS011;15806;53.548;9.964;2022-09-09T05:33:35;25.80;;;17.03;;
28613;SDS011;15806;53.548;9.964;2022-09-09T05:35:16;24.92;;;17.10;;
28613;SDS011;15806;53.548;9.964;2022-09-09T05:36:57;25.33;;;18.50;;
28613;SDS011;15806;53.548;9.964;2022-09-09T05:38:37;23.77;;;17.33;;
28613;SDS011;15806;53.548;9.964;2022-09-09T05:40:18;26.60;;;17.93;;
28613;SDS011;15806;53.548;9.964;2022-09-09T05:41:59;22.90;;;17.97;;
28613;SDS011;15806;53.548;9.964;2022-09-09T05:43:39;30.10;;;17.53;;
28613;SDS011;15806;53.548;9.964;2022-09-09T05:45:20;25.27;;;17.27;;
28613;SDS011;15806;53.548;9.964;2022-09-09T05:47:00;24.03;;;17.90;;
28613;SDS011;15806;53.548;9.964;2022-09-09T05:48:41;22.00;;;16.10;;
28613;SDS011;15806;53.548;9.964;2022-09-09T05:50:24;27.65;;;18.50;;
28613;SDS011;15806;53.548;9.964;2022-09-09T05:52:04;26.70;;;16.10;;
28613;SDS011;15806;53.548;9.964;2022-09-09T05:53:45;31.00;;;17.27;;
28613;SDS011;15806;53.548;9.964;2022-09-09T05:55:25;22.27;;;15.60;;
28613;SDS011;15806;53.548;9.964;2022-09-09T05:57:06;24.73;;;16.60;;
28613;SDS011;15806;53.548;9.964;2022-09-09T05:58:46;23.60;;;16.27;;
28613;SDS011;15806;53.548;9.964;2022-09-09T06:00:27;24.17;;;15.70;;
28613;SDS011;15806;53.548;9.964;2022-09-09T06:02:08;25.90;;;15.70;;
28613;SDS011;15806;53.548;9.964;2022-09-09T06:03:49;19.48;;;14.93;;
28613;SDS011;15806;53.548;9.964;2022-09-09T06:05:31;22.42;;;15.43;;
28613;SDS011;15806;53.548;9.964;2022-09-09T06:07:11;20.53;;;13.93;;
28613;SDS011;15806;53.548;9.964;2022-09-09T06:08:52;19.67;;;14.57;;
28613;SDS011;15806;53.548;9.964;2022-09-09T06:10:35;19.25;;;14.77;;
28613;SDS011;15806;53.548;9.964;2022-09-09T06:12:15;19.83;;;14.17;;
28613;SDS011;15806;53.548;9.964;2022-09-09T06:13:56;16.63;;;13.67;;
28613;SDS011;15806;53.548;9.964;2022-09-09T06:15:36;19.13;;;13.33;;
28613;SDS011;15806;53.548;9.964;2022-09-09T06:17:17;23.13;;;14.00;;
28613;SDS011;15806;53.548;9.964;2022-09-09T06:18:57;21.90;;;14.23;;
28613;SDS011;15806;53.548;9.964;2022-09-09T06:20:38;22.77;;;13.10;;
28613;SDS011;15806;53.548;9.964;2022-09-09T06:22:19;22.60;;;13.87;;
28613;SDS011;15806;53.548;9.964;2022-09-09T06:23:59;20.93;;;13.93;;
28613;SDS011;15806;53.548;9.964;2022-09-09T06:25:40;21.10;;;13.47;;
28613;SDS011;15806;53.548;9.964;2022-09-09T06:27:21;23.27;;;13.40;;
28613;SDS011;15806;53.548;9.964;2022-09-09T06:29:02;20.23;;;13.33;;
28613;SDS011;15806;53.548;9.964;2022-09-09T06:30:43;25.25;;;13.15;;
28613;SDS011;15806;53.548;9.964;2022-09-09T06:32:24;22.30;;;14.10;;
28613;SDS011;15806;53.548;9.964;2022-09-09T06:34:05;19.70;;;12.87;;
28613;SDS011;15806;53.548;9.964;2022-09-09T06:35:53;19.80;;;13.98;;
28613;SDS011;15806;53.548;9.964;2022-09-09T06:37:34;22.98;;;14.55;;
28613;SDS011;15806;53.548;9.964;2022-09-09T06:39:14;37.83;;;15.47;;
28613;SDS011;15806;53.548;9.964;2022-09-09T06:40:56;28.03;;;13.37;;
28613;SDS011;15806;53.548;9.964;2022-09-09T06:42:38;18.20;;;12.70;;
28613;SDS011;15806;53.548;9.964;2022-09-09T06:44:19;23.37;;;13.97;;
28613;SDS011;15806;53.548;9.964;2022-09-09T06:46:00;25.33;;;14.33;;
28613;SDS011;15806;53.548;9.964;2022-09-09T06:47:45;22.27;;;13.50;;
28613;SDS011;15806;53.548;9.964;2022-09-09T06:49:26;24.07;;;13.77;;
28613;SDS011;15806;53.548;9.964;2022-09-09T06:51:13;17.00;;;12.30;;
28613;SDS011;15806;53.548;9.964;2022-09-09T06:52:58;22.83;;;12.80;;
28613;SDS011;15806;53.548;9.964;2022-09-09T06:54:39;17.57;;;11.37;;
28613;SDS011;15806;53.548;9.964;2022-09-09T06:58:02;15.43;;;11.57;;
28613;SDS011;15806;53.548;9.964;2022-09-09T06:59:47;21.67;;;11.52;;
28613;SDS011;15806;53.548;9.964;2022-09-09T07:01:28;21.23;;;11.60;;
28613;SDS011;15806;53.548;9.964;2022-09-09T07:03:10;16.83;;;11.05;;
28613;SDS011;15806;53.548;9.964;2022-09-09T07:06:33;15.35;;;9.73;;
28613;SDS011;15806;53.548;9.964;2022-09-09T07:08:14;16.05;;;9.55;;
28613;SDS011;15806;53.548;9.964;2022-09-09T07:09:55;14.80;;;9.20;;
28613;SDS011;15806;53.548;9.964;2022-09-09T07:11:39;17.57;;;9.67;;
28613;SDS011;15806;53.548;9.964;2022-09-09T07:13:25;15.10;;;8.88;;
28613;SDS011;15806;53.548;9.964;2022-09-09T07:15:06;16.35;;;9.85;;
28613;SDS011;15806;53.548;9.964;2022-09-09T07:16:47;19.07;;;10.30;;
28613;SDS011;15806;53.548;9.964;2022-09-09T07:18:27;18.47;;;11.03;;
28613;SDS011;15806;53.548;9.964;2022-09-09T07:20:08;19.10;;;10.93;;
28613;SDS011;15806;53.548;9.964;2022-09-09T07:21:48;14.10;;;9.73;;
28613;SDS011;15806;53.548;9.964;2022-09-09T07:23:49;14.23;;;9.17;;
28613;SDS011;15806;53.548;9.964;2022-09-09T07:25:29;16.42;;;9.32;;
28613;SDS011;15806;53.548;9.964;2022-09-09T07:27:10;12.50;;;8.60;;
28613;SDS011;15806;53.548;9.964;2022-09-09T07:28:50;18.90;;;9.60;;
28613;SDS011;15806;53.548;9.964;2022-09-09T07:30:31;16.60;;;9.30;;
28613;SDS011;15806;53.548;9.964;2022-09-09T07:32:11;11.43;;;7.73;;
28613;SDS011;15806;53.548;9.964;2022-09-09T07:33:52;16.37;;;8.50;;
28613;SDS011;15806;53.548;9.964;2022-09-09T07:35:33;13.13;;;8.50;;
28613;SDS011;15806;53.548;9.964;2022-09-09T07:37:13;11.70;;;8.13;;
28613;SDS011;15806;53.548;9.964;2022-09-09T07:38:58;12.43;;;8.47;;
28613;SDS011;15806;53.548;9.964;2022-09-09T07:40:40;16.90;;;8.85;;
28613;SDS011;15806;53.548;9.964;2022-09-09T07:42:21;10.57;;;7.63;;
28613;SDS011;15806;53.548;9.964;2022-09-09T07:44:09;14.33;;;8.17;;
28613;SDS011;15806;53.548;9.964;2022-09-09T07:45:57;15.80;;;7.95;;
28613;SDS011;15806;53.548;9.964;2022-09-09T07:47:38;17.90;;;8.07;;
28613;SDS011;15806;53.548;9.964;2022-09-09T07:49:18;12.97;;;7.90;;
28613;SDS011;15806;53.548;9.964;2022-09-09T07:51:09;11.80;;;7.67;;
28613;SDS011;15806;53.548;9.964;2022-09-09T07:52:54;13.00;;;7.82;;
28613;SDS011;15806;53.548;9.964;2022-09-09T07:54:35;11.13;;;6.87;;
28613;SDS011;15806;53.548;9.964;2022-09-09T07:56:16;11.87;;;7.30;;
28613;SDS011;15806;53.548;9.964;2022-09-09T07:57:58;12.48;;;7.72;;
28613;SDS011;15806;53.548;9.964;2022-09-09T07:59:38;8.23;;;6.77;;
28613;SDS011;15806;53.548;9.964;2022-09-09T08:01:21;13.43;;;8.97;;
28613;SDS011;15806;53.548;9.964;2022-09-09T08:03:07;15.00;;;7.35;;
28613;SDS011;15806;53.548;9.964;2022-09-09T08:04:47;11.40;;;6.60;;
28613;SDS011;15806;53.548;9.964;2022-09-09T08:06:28;12.63;;;6.63;;
28613;SDS011;15806;53.548;9.964;2022-09-09T08:08:11;12.10;;;6.95;;
28613;SDS011;15806;53.548;9.964;2022-09-09T08:09:51;12.60;;;7.13;;
28613;SDS011;15806;53.548;9.964;2022-09-09T08:11:33;13.63;;;6.90;;
28613;SDS011;15806;53.548;9.964;2022-09-09T08:13:14;10.32;;;5.93;;
28613;SDS011;15806;53.548;9.964;2022-09-09T08:14:54;10.80;;;6.57;;
28613;SDS011;15806;53.548;9.964;2022-09-09T08:16:36;10.60;;;5.20;;
28613;SDS011;15806;53.548;9.964;2022-09-09T08:18:19;11.18;;;6.25;;
28613;SDS011;15806;53.548;9.964;2022-09-09T08:19:59;12.67;;;6.47;;
28613;SDS011;15806;53.548;9.964;2022-09-09T08:21:51;9.80;;;6.15;;
28613;SDS011;15806;53.548;9.964;2022-09-09T08:24:01;9.13;;;6.35;;
28613;SDS011;15806;53.548;9.964;2022-09-09T08:25:42;10.45;;;6.50;;
28613;SDS011;15806;53.548;9.964;2022-09-09T08:27:23;16.67;;;6.63;;
28613;SDS011;15806;53.548;9.964;2022-09-09T08:29:04;10.97;;;6.20;;
28613;SDS011;15806;53.548;9.964;2022-09-09T08:30:45;9.70;;;5.28;;
28613;SDS011;15806;53.548;9.964;2022-09-09T08:32:26;7.53;;;4.13;;
28613;SDS011;15806;53.548;9.964;2022-09-09T08:34:07;7.90;;;3.93;;
28613;SDS011;15806;53.548;9.964;2022-09-09T08:35:51;7.35;;;3.50;;
28613;SDS011;15806;53.548;9.964;2022-09-09T08:37:31;5.50;;;3.67;;
28613;SDS011;15806;53.548;9.964;2022-09-09T08:39:13;6.47;;;3.00;;
28613;SDS011;15806;53.548;9.964;2022-09-09T08:40:57;5.45;;;2.65;;
28613;SDS011;15806;53.548;9.964;2022-09-09T08:46:38;3.47;;;2.70;;
28613;SDS011;15806;53.548;9.964;2022-09-09T08:48:34;5.70;;;3.25;;
28613;SDS011;15806;53.548;9.964;2022-09-09T08:50:29;5.00;;;2.45;;
28613;SDS011;15806;53.548;9.964;2022-09-09T08:52:13;4.45;;;2.40;;
28613;SDS011;15806;53.548;9.964;2022-09-09T08:53:58;5.32;;;2.30;;
28613;SDS011;15806;53.548;9.964;2022-09-09T08:55:45;6.65;;;2.65;;
28613;SDS011;15806;53.548;9.964;2022-09-09T08:57:29;7.97;;;3.05;;
28613;SDS011;15806;53.548;9.964;2022-09-09T08:59:12;7.38;;;2.40;;
28613;SDS011;15806;53.548;9.964;2022-09-09T09:02:59;6.63;;;2.55;;
28613;SDS011;15806;53.548;9.964;2022-09-09T09:12:25;6.05;;;2.58;;
28613;SDS011;15806;53.548;9.964;2022-09-09T09:14:23;4.03;;;2.40;;
28613;SDS011;15806;53.548;9.964;2022-09-09T09:16:17;4.68;;;2.25;;
28613;SDS011;15806;53.548;9.964;2022-09-09T09:18:04;13.02;;;2.30;;
28613;SDS011;15806;53.548;9.964;2022-09-09T09:19:45;6.13;;;2.03;;
28613;SDS011;15806;53.548;9.964;2022-09-09T09:21:36;4.68;;;2.30;;
28613;SDS011;15806;53.548;9.964;2022-09-09T09:23:25;10.18;;;2.90;;
28613;SDS011;15806;53.548;9.964;2022-09-09T09:25:15;4.70;;;2.00;;
28613;SDS011;15806;53.548;9.964;2022-09-09T09:27:07;6.55;;;1.95;;
28613;SDS011;15806;53.548;9.964;2022-09-09T09:28:54;6.15;;;2.42;;
28613;SDS011;15806;53.548;9.964;2022-09-09T09:31:21;8.02;;;3.03;;
28613;SDS011;15806;53.548;9.964;2022-09-09T09:32:43;7.03;;;2.20;;
28613;SDS011;15806;53.548;9.964;2022-09-09T09:34:31;7.43;;;2.60;;
28613;SDS011;15806;53.548;9.964;2022-09-09T09:36:11;10.07;;;3.73;;
28613;SDS011;15806;53.548;9.964;2022-09-09T09:37:53;5.32;;;2.35;;
28613;SDS011;15806;53.548;9.964;2022-09-09T09:39:33;9.83;;;2.83;;
28613;SDS011;15806;53.548;9.964;2022-09-09T09:41:14;7.57;;;2.47;;
28613;SDS011;15806;53.548;9.964;2022-09-09T09:42:56;3.80;;;2.07;;
28613;SDS011;15806;53.548;9.964;2022-09-09T09:44:39;5.90;;;2.20;;
28613;SDS011;15806;53.548;9.964;2022-09-09T09:46:21;5.90;;;2.22;;
28613;SDS011;15806;53.548;9.964;2022-09-09T09:48:08;3.95;;;1.90;;
28613;SDS011;15806;53.548;9.964;2022-09-09T09:49:52;5.18;;;1.90;;
28613;SDS011;15806;53.548;9.964;2022-09-09T09:51:39;10.32;;;2.90;;
28613;SDS011;15806;53.548;9.964;2022-09-09T09:53:24;8.70;;;2.97;;
28613;SDS011;15806;53.548;9.964;2022-09-09T09:55:13;6.97;;;3.60;;
28613;SDS011;15806;53.548;9.964;2022-09-09T09:56:54;6.45;;;3.00;;
28613;SDS011;15806;53.548;9.964;2022-09-09T10:00:29;6.47;;;2.63;;
28613;SDS011;15806;53.548;9.964;2022-09-09T10:03:57;7.63;;;3.15;;
28613;SDS011;15806;53.548;9.964;2022-09-09T10:05:57;5.53;;;2.63;;
28613;SDS011;15806;53.548;9.964;2022-09-09T10:07:37;6.18;;;2.50;;
28613;SDS011;15806;53.548;9.964;2022-09-09T10:09:20;6.10;;;2.60;;
28613;SDS011;15806;53.548;9.964;2022-09-09T10:13:14;4.10;;;2.22;;
28613;SDS011;15806;53.548;9.964;2022-09-09T10:19:06;5.82;;;2.50;;
28613;SDS011;15806;53.548;9.964;2022-09-09T10:21:02;4.60;;;1.95;;
28613;SDS011;15806;53.548;9.964;2022-09-09T10:23:21;4.93;;;1.70;;
28613;SDS011;15806;53.548;9.964;2022-09-09T10:26:58;9.82;;;2.30;;
28613;SDS011;15806;53.548;9.964;2022-09-09T10:34:19;4.70;;;1.92;;
28613;SDS011;15806;53.548;9.964;2022-09-09T10:36:24;5.63;;;1.83;;
28613;SDS011;15806;53.548;9.964;2022-09-09T10:42:18;7.38;;;1.80;;
28613;SDS011;15806;53.548;9.964;2022-09-09T10:44:12;6.90;;;1.63;;
28613;SDS011;15806;53.548;9.964;2022-09-09T10:56:06;7.43;;;2.28;;
28613;SDS011;15806;53.548;9.964;2022-09-09T10:57:51;4.53;;;1.20;;
28613;SDS011;15806;53.548;9.964;2022-09-09T10:59:35;3.63;;;1.85;;
28613;SDS011;15806;53.548;9.964;2022-09-09T11:01:24;4.28;;;1.40;;
28613;SDS011;15806;53.548;9.964;2022-09-09T11:07:05;5.32;;;1.65;;
28613;SDS011;15806;53.548;9.964;2022-09-09T11:08:48;9.30;;;1.73;;
28613;SDS011;15806;53.548;9.964;2022-09-09T11:12:19;2.92;;;1.27;;
28613;SDS011;15806;53.548;9.964;2022-09-09T11:14:12;4.90;;;1.90;;
28613;SDS011;15806;53.548;9.964;2022-09-09T11:16:01;5.75;;;1.65;;
28613;SDS011;15806;53.548;9.964;2022-09-09T11:17:56;8.10;;;1.58;;
28613;SDS011;15806;53.548;9.964;2022-09-09T11:19:40;2.88;;;1.30;;
28613;SDS011;15806;53.548;9.964;2022-09-09T11:21:23;6.65;;;1.30;;
28613;SDS011;15806;53.548;9.964;2022-09-09T11:23:15;2.92;;;1.13;;
28613;SDS011;15806;53.548;9.964;2022-09-09T11:31:28;4.28;;;1.05;;
28613;SDS011;15806;53.548;9.964;2022-09-09T11:38:25;3.53;;;1.20;;
28613;SDS011;15806;53.548;9.964;2022-09-09T11:41:46;5.45;;;1.42;;
28613;SDS011;15806;53.548;9.964;2022-09-09T11:43:31;5.77;;;2.10;;
28613;SDS011;15806;53.548;9.964;2022-09-09T11:45:25;6.15;;;1.80;;
28613;SDS011;15806;53.548;9.964;2022-09-09T11:47:27;3.30;;;1.13;;
28613;SDS011;15806;53.548;9.964;2022-09-09T11:51:09;5.28;;;1.23;;
28613;SDS011;15806;53.548;9.964;2022-09-09T11:55:11;5.15;;;1.52;;
28613;SDS011;15806;53.548;9.964;2022-09-09T11:57:14;5.72;;;2.22;;
28613;SDS011;15806;53.548;9.964;2022-09-09T11:59:06;6.57;;;1.73;;
28613;SDS011;15806;53.548;9.964;2022-09-09T12:00:59;7.55;;;1.60;;
28613;SDS011;15806;53.548;9.964;2022-09-09T12:02:47;5.87;;;2.00;;
28613;SDS011;15806;53.548;9.964;2022-09-09T12:04:32;4.90;;;1.63;;
28613;SDS011;15806;53.548;9.964;2022-09-09T12:06:15;7.47;;;1.65;;
28613;SDS011;15806;53.548;9.964;2022-09-09T12:07:57;6.70;;;1.90;;